Terminal Aerodrome Forecast
Issued by NWS

Current Version | Previous Version | Graphics & Text | Print | Product List | Glossary On
Versions: 1 2 3 4 5 6 7 8 9 10 11 12 13 14 15 16 17
000
FTUS41 KILN 251700
TAFLUK
TAF
KLUK 251740Z 2518/2618 VRB04KT P6SM VCSH SCT030 OVC070
      TEMPO 2521/2523 4SM -RA BR SCT018 OVC030
     FM252300 05005KT 3SM -RA OVC018
      TEMPO 2603/2605 01011G21KT 1SM -SNRA OVC010
     FM260500 36013G21KT 3SM -SN OVC025
      TEMPO 2605/2608 P6SM NSW OVC018
     FM260800 34011KT P6SM OVC020
     FM261700 32010KT P6SM SCT022 BKN250=

USA.gov is the U.S. government's official web portal to all federal, state and local government web resources and services.